Time;durP1;ratioP1;P1;durP2;ratioP2;P2;SDS_P1;SDS_P2;PMS_P1;PMS_P2;Temp;Humidity;BMP_temperature;BMP_pressure;BME280_temperature;BME280_humidity;BME280_pressure;Samples;Min_cycle;Max_cycle;Signal;HPM_P1;HPM_P2
2023/05/06 00:00:58;;;;;;;9.57;6.30;;;12.10;99.90;;;;;;5016602;28;20462;-73
2023/05/06 00:03:24;;;;;;;10.32;6.18;;;12.00;99.90;;;;;;5015457;28;20454;-73
2023/05/06 00:05:49;;;;;;;9.02;5.60;;;12.00;99.90;;;;;;5015531;28;20137;-73
2023/05/06 00:08:15;;;;;;;9.38;5.78;;;12.00;99.90;;;;;;4997587;28;20030;-73
2023/05/06 00:10:41;;;;;;;9.18;5.25;;;12.00;99.90;;;;;;4997069;28;20389;-73
2023/05/06 00:13:07;;;;;;;9.88;5.85;;;12.00;99.90;;;;;;5014383;28;20030;-72
2023/05/06 00:15:33;;;;;;;7.78;6.05;;;12.00;99.90;;;;;;5014589;28;20022;-73
2023/05/06 00:17:59;;;;;;;10.80;5.95;;;12.00;99.90;;;;;;5014544;28;20040;-73
2023/05/06 00:20:26;;;;;;;9.02;5.97;;;12.00;99.90;;;;;;5014787;28;20036;-73
2023/05/06 00:22:51;;;;;;;9.88;5.70;;;11.90;99.90;;;;;;5014502;28;20034;-72
2023/05/06 00:25:18;;;;;;;6.82;5.72;;;11.90;99.90;;;;;;4996854;28;20113;-73
2023/05/06 00:27:43;;;;;;;8.02;5.88;;;11.90;99.90;;;;;;4996856;28;20030;-73
2023/05/06 00:30:10;;;;;;;7.97;5.88;;;11.90;99.90;;;;;;4997227;28;20080;-73
2023/05/06 00:32:36;;;;;;;8.55;6.63;;;11.90;99.90;;;;;;5014486;28;20032;-73
2023/05/06 00:35:02;;;;;;;8.57;6.55;;;12.10;99.90;;;;;;5014039;28;20097;-73
2023/05/06 00:37:28;;;;;;;8.60;6.57;;;12.40;99.90;;;;;;4996732;28;20026;-73
2023/05/06 00:39:53;;;;;;;6.75;5.60;;;12.70;99.90;;;;;;5014263;28;20041;-72
2023/05/06 00:42:22;;;;;;;6.97;5.38;;;12.90;99.90;;;;;;5014635;28;20085;-73
2023/05/06 00:44:48;;;;;;;9.02;5.50;;;13.00;99.90;;;;;;5013915;28;20484;-73
2023/05/06 00:47:13;;;;;;;7.05;5.38;;;13.00;99.90;;;;;;5014250;28;20490;-73
2023/05/06 00:49:39;;;;;;;8.27;5.30;;;13.00;99.90;;;;;;5014230;28;20044;-73
2023/05/06 00:52:06;;;;;;;7.90;5.07;;;13.00;99.90;;;;;;5014398;28;20029;-73
2023/05/06 00:54:31;;;;;;;11.63;5.03;;;13.00;99.90;;;;;;4996430;28;20041;-73
2023/05/06 00:56:57;;;;;;;6.53;5.18;;;13.00;99.90;;;;;;4996146;28;20048;-73
2023/05/06 00:59:23;;;;;;;8.13;5.18;;;12.90;99.90;;;;;;5014057;28;20062;-72
2023/05/06 01:01:51;;;;;;;5.93;4.85;;;12.90;99.90;;;;;;4996384;28;20484;-72
2023/05/06 01:04:17;;;;;;;7.40;4.97;;;12.90;99.90;;;;;;4997150;28;20030;-72
2023/05/06 01:07:18;;;;;;;6.80;4.32;;;13.00;99.90;;;;;;5018284;28;20026;-73
2023/05/06 01:09:43;;;;;;;7.15;3.40;;;13.10;99.90;;;;;;5018201;28;20037;-73
2023/05/06 01:12:23;;;;;;;6.05;3.10;;;13.50;99.90;;;;;;5017825;28;20030;-72
2023/05/06 01:14:54;;;;;;;6.07;2.92;;;14.00;99.90;;;;;;5018280;28;20164;-73
2023/05/06 01:17:22;;;;;;;4.47;2.67;;;14.30;99.90;;;;;;5018005;28;20026;-73
2023/05/06 01:19:52;;;;;;;5.07;2.30;;;14.50;99.90;;;;;;5000263;28;20069;-73
2023/05/06 01:22:18;;;;;;;2.70;2.50;;;14.60;99.90;;;;;;5017839;28;20451;-73
2023/05/06 01:24:45;;;;;;;4.95;2.28;;;14.70;99.90;;;;;;5017488;28;20076;-73
2023/05/06 01:27:13;;;;;;;3.55;1.90;;;14.80;99.90;;;;;;5000065;28;20033;-72
2023/05/06 01:29:41;;;;;;;4.50;1.92;;;14.80;99.90;;;;;;5017598;28;20037;-72
2023/05/06 01:32:53;;;;;;;5.33;1.70;;;14.90;99.90;;;;;;5017340;28;20084;-72
2023/05/06 01:36:08;;;;;;;1.10;1.00;;;14.90;99.90;;;;;;4997172;28;20034;-72
2023/05/06 01:38:51;;;;;;;3.00;0.80;;;15.20;99.90;;;;;;5017673;28;20034;-72
2023/05/06 01:41:17;;;;;;;5.43;0.77;;;15.50;99.90;;;;;;4999989;28;20041;-72
2023/05/06 01:43:46;;;;;;;2.15;0.65;;;15.50;99.90;;;;;;5000078;28;20025;-72
2023/05/06 01:46:15;;;;;;;3.85;0.90;;;15.60;99.90;;;;;;5017591;28;20121;-72
2023/05/06 01:48:44;;;;;;;0.73;0.70;;;15.60;99.90;;;;;;4999709;28;20380;-72
2023/05/06 01:51:10;;;;;;;1.25;0.82;;;15.60;99.90;;;;;;5017486;28;20026;-72
2023/05/06 01:53:35;;;;;;;4.50;0.85;;;15.60;99.90;;;;;;5017312;28;20041;-72
2023/05/06 01:56:01;;;;;;;0.50;0.40;;;15.60;99.90;;;;;;4999573;28;20092;-72
2023/05/06 01:58:27;;;;;;;1.35;0.55;;;15.60;99.90;;;;;;5017438;28;20077;-72
2023/05/06 02:00:52;;;;;;;0.60;0.20;;;15.50;99.90;;;;;;5016885;28;20033;-72
2023/05/06 02:03:18;;;;;;;0.75;0.30;;;15.60;99.90;;;;;;5016862;28;20416;-72
2023/05/06 02:05:44;;;;;;;0.88;0.47;;;15.70;99.90;;;;;;5016731;28;20025;-72
2023/05/06 02:08:09;;;;;;;1.23;0.30;;;15.60;99.90;;;;;;5016856;28;20073;-73
2023/05/06 02:10:35;;;;;;;0.40;0.22;;;15.60;99.90;;;;;;5016898;28;20030;-72
2023/05/06 02:13:00;;;;;;;1.42;0.25;;;15.60;99.90;;;;;;4999457;28;20026;-72
2023/05/06 02:15:26;;;;;;;0.88;0.20;;;15.60;99.90;;;;;;5016674;28;20053;-72
2023/05/06 02:17:52;;;;;;;0.40;0.32;;;15.60;99.90;;;;;;5016126;28;20029;-72
2023/05/06 02:20:17;;;;;;;0.45;0.40;;;15.60;99.90;;;;;;5016976;28;20144;-72
2023/05/06 02:22:43;;;;;;;2.00;0.55;;;15.60;99.90;;;;;;4999074;28;20081;-72
2023/05/06 02:25:09;;;;;;;3.78;0.22;;;15.60;99.90;;;;;;5016679;28;20115;-72
2023/05/06 02:27:35;;;;;;;0.52;0.25;;;15.60;99.90;;;;;;5016690;28;20177;-72
2023/05/06 02:30:01;;;;;;;0.10;0.10;;;15.60;99.90;;;;;;5016566;28;20026;-72
2023/05/06 02:32:26;;;;;;;1.65;0.28;;;15.50;99.90;;;;;;5016780;28;20378;-72
2023/05/06 02:34:52;;;;;;;0.40;0.20;;;15.60;99.90;;;;;;5016714;28;20026;-72
2023/05/06 02:37:18;;;;;;;0.93;0.20;;;15.60;99.90;;;;;;5016468;28;20061;-72
2023/05/06 02:39:43;;;;;;;0.38;0.38;;;15.60;99.90;;;;;;5016404;28;20029;-72
2023/05/06 02:42:13;;;;;;;2.25;0.40;;;15.60;99.90;;;;;;5016722;28;20026;-72
2023/05/06 02:44:39;;;;;;;1.27;0.30;;;15.60;99.90;;;;;;4998721;28;20492;-72
2023/05/06 02:47:05;;;;;;;1.67;0.30;;;15.60;99.90;;;;;;5016297;28;20088;-72
2023/05/06 02:49:30;;;;;;;0.90;0.38;;;15.60;99.90;;;;;;5016146;28;20069;-72
2023/05/06 02:51:56;;;;;;;0.90;0.43;;;15.60;99.90;;;;;;4998732;28;20037;-72
2023/05/06 02:54:22;;;;;;;0.40;0.17;;;15.60;99.90;;;;;;4998485;28;20045;-72
2023/05/06 02:56:47;;;;;;;0.43;0.20;;;15.70;99.90;;;;;;5016459;28;20096;-72
2023/05/06 02:59:13;;;;;;;0.20;0.20;;;15.70;99.90;;;;;;5015875;28;20088;-72
2023/05/06 03:01:38;;;;;;;3.50;0.30;;;15.70;99.90;;;;;;5015884;28;20034;-71
2023/05/06 03:04:04;;;;;;;0.63;0.17;;;15.70;99.90;;;;;;5016390;28;20113;-72
2023/05/06 03:06:30;;;;;;;0.40;0.20;;;15.70;99.90;;;;;;5015736;28;20104;-72
2023/05/06 03:08:56;;;;;;;0.90;0.20;;;15.70;99.90;;;;;;5015781;28;20026;-72
2023/05/06 03:11:22;;;;;;;0.68;0.30;;;15.70;99.90;;;;;;5015691;28;20073;-72
2023/05/06 03:13:47;;;;;;;0.35;0.10;;;15.70;99.90;;;;;;4998445;28;20030;-72
2023/05/06 03:16:13;;;;;;;0.55;0.20;;;15.60;99.90;;;;;;5015582;28;20030;-72
2023/05/06 03:18:39;;;;;;;0.30;0.30;;;15.60;99.90;;;;;;5015701;28;20536;-72
2023/05/06 03:21:05;;;;;;;0.75;0.10;;;15.60;99.90;;;;;;5015611;28;20108;-72
2023/05/06 03:23:31;;;;;;;2.03;0.20;;;15.60;99.90;;;;;;5015930;28;20026;-72
2023/05/06 03:25:56;;;;;;;0.75;0.40;;;15.60;99.90;;;;;;4997894;28;20033;-72
2023/05/06 03:28:22;;;;;;;0.28;0.25;;;15.50;99.90;;;;;;5015672;28;20092;-73
2023/05/06 03:30:48;;;;;;;2.58;1.15;;;15.50;99.90;;;;;;4997962;28;20033;-72
2023/05/06 03:33:13;;;;;;;1.55;0.40;;;15.50;99.90;;;;;;4997735;28;20061;-72
2023/05/06 03:35:39;;;;;;;0.30;0.30;;;15.50;99.90;;;;;;4997803;28;20034;-72
2023/05/06 03:38:05;;;;;;;0.80;0.30;;;15.50;99.90;;;;;;4997630;28;20121;-72
2023/05/06 03:40:32;;;;;;;0.30;0.30;;;15.50;99.90;;;;;;5015526;28;20068;-72
2023/05/06 03:42:57;;;;;;;0.77;0.30;;;15.50;99.90;;;;;;4997315;28;20030;-72
2023/05/06 03:45:23;;;;;;;0.93;0.40;;;15.50;99.90;;;;;;5015083;28;20060;-72
2023/05/06 03:47:49;;;;;;;2.00;0.47;;;15.50;99.90;;;;;;4998072;28;20025;-72
2023/05/06 03:50:14;;;;;;;1.48;0.30;;;15.40;99.90;;;;;;4997399;28;20029;-72
2023/05/06 03:52:40;;;;;;;0.40;0.30;;;15.40;99.90;;;;;;4997343;28;20040;-72
2023/05/06 03:55:06;;;;;;;0.75;0.30;;;15.40;99.90;;;;;;4997366;28;20079;-72
2023/05/06 03:57:32;;;;;;;0.85;0.40;;;15.40;99.90;;;;;;5014930;28;20397;-72
2023/05/06 03:59:57;;;;;;;0.20;0.20;;;15.40;99.90;;;;;;5014946;28;20041;-72
2023/05/06 04:02:23;;;;;;;1.10;0.28;;;15.40;99.90;;;;;;4997210;28;20026;-72
2023/05/06 04:04:49;;;;;;;1.85;0.35;;;15.30;99.90;;;;;;5014812;28;20029;-72
2023/05/06 04:07:14;;;;;;;1.38;0.30;;;15.40;99.90;;;;;;5014473;28;20398;-72
2023/05/06 04:09:40;;;;;;;1.48;0.43;;;15.30;99.90;;;;;;5014658;28;20037;-72
2023/05/06 04:12:06;;;;;;;4.30;0.60;;;15.30;99.90;;;;;;4997082;28;20394;-72
2023/05/06 04:14:32;;;;;;;1.60;0.60;;;15.30;99.90;;;;;;5014377;28;20036;-72
2023/05/06 04:16:58;;;;;;;1.15;0.40;;;15.30;99.90;;;;;;5014603;28;20032;-72
2023/05/06 04:19:23;;;;;;;0.73;0.50;;;15.30;99.90;;;;;;4996894;28;20030;-72
2023/05/06 04:21:49;;;;;;;1.45;0.30;;;15.30;99.90;;;;;;5014534;28;20052;-72
2023/05/06 04:24:14;;;;;;;0.40;0.20;;;15.20;99.90;;;;;;5014503;28;20029;-72
2023/05/06 04:26:41;;;;;;;2.58;0.30;;;15.20;99.90;;;;;;4997442;28;20080;-73
2023/05/06 04:29:07;;;;;;;0.82;0.30;;;15.20;99.90;;;;;;5014025;28;20026;-72
2023/05/06 04:31:33;;;;;;;0.40;0.30;;;15.20;99.90;;;;;;5014681;28;20034;-72
2023/05/06 04:34:00;;;;;;;0.57;0.28;;;15.20;99.90;;;;;;4996678;28;20084;-72
2023/05/06 04:36:25;;;;;;;4.35;0.40;;;15.20;99.90;;;;;;5014519;28;20026;-72
2023/05/06 04:38:52;;;;;;;1.00;0.40;;;15.10;99.90;;;;;;4996274;28;20429;-72
2023/05/06 04:41:19;;;;;;;0.63;0.63;;;15.10;99.90;;;;;;4996592;28;20038;-73
2023/05/06 04:43:45;;;;;;;2.53;0.40;;;15.00;99.90;;;;;;5014237;28;20040;-75
2023/05/06 04:46:11;;;;;;;1.15;0.50;;;15.00;99.90;;;;;;4996386;28;20478;-75
2023/05/06 04:48:37;;;;;;;0.50;0.40;;;14.90;99.90;;;;;;5014023;28;20080;-75
2023/05/06 04:51:04;;;;;;;0.40;0.40;;;14.90;99.90;;;;;;5013877;28;20129;-74
2023/05/06 04:53:30;;;;;;;1.48;0.43;;;14.80;99.90;;;;;;4996489;28;20381;-75
2023/05/06 04:55:55;;;;;;;0.38;0.38;;;14.80;99.90;;;;;;4996382;28;20022;-74
2023/05/06 04:58:21;;;;;;;1.30;0.32;;;14.70;99.90;;;;;;4996669;28;20048;-74
2023/05/06 05:00:47;;;;;;;0.57;0.50;;;14.70;99.90;;;;;;5013990;28;20033;-75
2023/05/06 05:03:12;;;;;;;1.85;0.35;;;14.70;99.90;;;;;;4996433;28;20038;-75
2023/05/06 05:05:38;;;;;;;1.52;0.60;;;14.70;99.90;;;;;;5013933;28;20248;-75
2023/05/06 05:08:04;;;;;;;1.05;0.57;;;14.60;99.90;;;;;;4996358;28;20385;-74
2023/05/06 05:10:30;;;;;;;1.85;0.40;;;14.60;99.90;;;;;;4995951;28;20025;-74
2023/05/06 05:12:55;;;;;;;0.50;0.45;;;14.60;99.90;;;;;;4996350;28;20036;-74
2023/05/06 05:15:21;;;;;;;1.13;0.50;;;14.60;99.90;;;;;;5013924;28;20030;-74
2023/05/06 05:17:48;;;;;;;1.63;0.63;;;14.60;99.90;;;;;;5014078;28;20022;-72
2023/05/06 05:20:14;;;;;;;0.45;0.32;;;14.70;99.90;;;;;;5013571;28;20109;-72
2023/05/06 05:22:39;;;;;;;0.85;0.63;;;14.70;99.90;;;;;;5013812;28;20108;-75
2023/05/06 05:25:06;;;;;;;0.60;0.60;;;14.70;99.90;;;;;;4996215;28;20032;-76
2023/05/06 05:27:31;;;;;;;0.75;0.70;;;14.80;99.90;;;;;;4995843;28;20084;-75
2023/05/06 05:29:57;;;;;;;1.45;0.52;;;14.80;99.90;;;;;;4996027;28;20026;-72
2023/05/06 05:32:22;;;;;;;0.95;0.57;;;14.80;99.90;;;;;;5013752;28;20022;-72
2023/05/06 05:34:48;;;;;;;1.23;0.70;;;14.80;99.90;;;;;;5013412;28;20056;-72
2023/05/06 05:37:14;;;;;;;1.20;0.60;;;14.80;99.90;;;;;;5013645;28;20022;-72
2023/05/06 05:39:39;;;;;;;0.80;0.75;;;14.90;99.90;;;;;;5013658;28;20454;-72
2023/05/06 05:42:05;;;;;;;0.73;0.73;;;14.90;99.90;;;;;;5013574;28;20026;-72
2023/05/06 05:44:30;;;;;;;4.50;0.70;;;14.90;99.90;;;;;;4996432;28;20422;-71
2023/05/06 05:46:56;;;;;;;3.92;0.85;;;14.90;99.90;;;;;;5014126;28;20509;-60
2023/05/06 05:49:21;;;;;;;3.20;1.33;;;14.90;99.90;;;;;;5013180;28;20038;-64
2023/05/06 05:51:47;;;;;;;2.63;1.10;;;14.90;99.90;;;;;;4997445;28;20037;-64
2023/05/06 05:54:13;;;;;;;0.80;0.80;;;14.90;99.90;;;;;;5017144;28;20374;-63
2023/05/06 05:56:39;;;;;;;3.75;1.10;;;15.00;99.90;;;;;;4999662;28;20030;-72
2023/05/06 05:59:04;;;;;;;1.50;0.95;;;15.10;99.90;;;;;;5017116;28;20025;-73
2023/05/06 06:01:30;;;;;;;0.88;0.88;;;15.20;99.90;;;;;;5017038;28;20103;-72
2023/05/06 06:03:56;;;;;;;0.90;0.85;;;15.30;99.90;;;;;;4999474;28;20032;-73
2023/05/06 06:06:23;;;;;;;3.35;1.40;;;15.40;99.90;;;;;;5016823;28;20492;-73
2023/05/06 06:08:49;;;;;;;3.42;0.90;;;15.60;99.90;;;;;;5016837;28;20029;-74
2023/05/06 06:11:14;;;;;;;1.10;0.60;;;15.70;99.90;;;;;;5016754;28;20421;-75
2023/05/06 06:13:40;;;;;;;2.55;0.80;;;15.80;99.90;;;;;;5016886;28;20030;-73
2023/05/06 06:16:06;;;;;;;4.15;1.10;;;15.90;99.90;;;;;;5016880;28;20033;-72
2023/05/06 06:18:31;;;;;;;2.67;0.73;;;16.10;99.90;;;;;;4999135;28;20076;-73
2023/05/06 06:20:57;;;;;;;1.33;0.60;;;16.30;99.90;;;;;;4999926;28;20450;-73
2023/05/06 06:23:23;;;;;;;2.97;0.50;;;16.40;99.90;;;;;;5016335;28;20084;-72
2023/05/06 06:25:49;;;;;;;0.40;0.40;;;16.60;99.90;;;;;;4998931;28;20033;-72
2023/05/06 06:28:14;;;;;;;0.50;0.50;;;16.90;99.90;;;;;;4998969;28;20029;-75
2023/05/06 06:30:40;;;;;;;0.70;0.70;;;17.10;99.90;;;;;;5016435;28;20430;-63
2023/05/06 06:33:06;;;;;;;2.45;0.50;;;17.30;99.90;;;;;;5016663;28;20030;-67
2023/05/06 06:35:31;;;;;;;1.77;0.55;;;17.50;99.90;;;;;;4998688;28;20113;-67
2023/05/06 06:37:57;;;;;;;0.77;0.68;;;17.60;99.90;;;;;;4998673;28;20021;-70
2023/05/06 06:40:23;;;;;;;0.57;0.50;;;17.80;99.90;;;;;;5016281;28;20061;-71
2023/05/06 06:42:49;;;;;;;2.25;0.70;;;18.00;99.90;;;;;;4998724;28;20558;-71
2023/05/06 06:45:14;;;;;;;1.65;0.50;;;18.10;99.90;;;;;;5015966;28;20049;-71
2023/05/06 06:47:40;;;;;;;1.08;0.40;;;18.30;99.90;;;;;;5015964;28;20066;-72
2023/05/06 06:50:07;;;;;;;0.50;0.50;;;18.60;99.90;;;;;;5015942;28;20030;-72
2023/05/06 06:52:34;;;;;;;0.65;0.60;;;18.60;99.90;;;;;;5016480;28;20068;-72
2023/05/06 06:55:00;;;;;;;1.13;0.60;;;18.70;99.90;;;;;;5015975;28;20036;-72
2023/05/06 06:57:25;;;;;;;0.68;0.30;;;18.80;99.90;;;;;;5015846;28;20490;-72
2023/05/06 06:59:52;;;;;;;1.05;0.70;;;19.20;99.90;;;;;;5015625;28;20038;-71
2023/05/06 07:02:18;;;;;;;0.70;0.45;;;19.60;99.90;;;;;;4997873;28;20037;-74
2023/05/06 07:04:44;;;;;;;2.85;0.50;;;19.90;99.90;;;;;;5015881;28;20101;-72
2023/05/06 07:07:10;;;;;;;1.75;0.45;;;20.00;99.90;;;;;;5015894;28;20447;-72
2023/05/06 07:09:35;;;;;;;1.70;0.60;;;19.90;99.90;;;;;;5015857;28;20034;-71
2023/05/06 07:12:01;;;;;;;1.48;0.57;;;19.70;99.90;;;;;;4998212;28;20104;-73
2023/05/06 07:14:27;;;;;;;0.50;0.50;;;19.70;99.90;;;;;;5015738;28;20429;-72
2023/05/06 07:16:52;;;;;;;0.88;0.60;;;20.20;99.90;;;;;;5015802;28;20413;-62
2023/05/06 07:19:18;;;;;;;1.63;0.50;;;20.50;99.90;;;;;;5017663;28;20054;-62
2023/05/06 07:21:43;;;;;;;1.40;0.70;;;20.90;99.90;;;;;;5000719;28;20034;-62
2023/05/06 07:24:09;;;;;;;2.30;0.50;;;21.00;99.50;;;;;;4997207;28;20105;-63
2023/05/06 07:26:35;;;;;;;1.45;0.57;;;21.00;99.20;;;;;;5015504;28;20022;-64
2023/05/06 07:29:03;;;;;;;4.15;0.80;;;21.20;98.20;;;;;;5015688;28;20079;-63
2023/05/06 07:31:28;;;;;;;0.57;0.55;;;21.30;97.60;;;;;;4997902;28;20034;-64
2023/05/06 07:33:54;;;;;;;1.35;0.77;;;21.60;97.30;;;;;;5015119;28;20489;-64
2023/05/06 07:36:19;;;;;;;3.10;0.50;;;21.90;96.70;;;;;;4996144;28;20037;-64
2023/05/06 07:38:45;;;;;;;1.70;0.45;;;22.00;96.20;;;;;;4995352;28;20023;-64
2023/05/06 07:41:11;;;;;;;2.33;0.98;;;22.40;95.10;;;;;;4995555;28;20479;-64
2023/05/06 07:43:36;;;;;;;2.58;0.80;;;22.40;94.10;;;;;;4995220;28;20026;-64
2023/05/06 07:46:02;;;;;;;1.23;0.60;;;22.30;94.00;;;;;;5005504;28;20050;-64
2023/05/06 07:48:28;;;;;;;1.85;0.55;;;22.50;93.10;;;;;;5005038;28;20160;-64
2023/05/06 07:50:54;;;;;;;1.33;0.90;;;22.80;93.30;;;;;;5014925;28;20026;-64
2023/05/06 07:53:20;;;;;;;3.15;0.60;;;23.20;91.80;;;;;;4993842;28;20031;-66
2023/05/06 07:55:46;;;;;;;38.42;2.08;;;23.40;90.60;;;;;;4994022;28;20101;-68
2023/05/06 07:58:12;;;;;;;7.18;0.70;;;23.30;90.70;;;;;;4995890;28;20461;-66
2023/05/06 08:00:37;;;;;;;2.70;0.90;;;23.40;90.10;;;;;;4995667;28;20058;-65
2023/05/06 08:03:03;;;;;;;3.80;0.80;;;23.20;88.40;;;;;;4995395;28;20081;-65
2023/05/06 08:05:29;;;;;;;0.65;0.50;;;23.20;88.30;;;;;;4993930;28;20149;-65
2023/05/06 08:07:54;;;;;;;2.58;0.73;;;23.50;88.30;;;;;;4994219;28;20030;-65
2023/05/06 08:10:21;;;;;;;2.15;0.80;;;23.60;86.90;;;;;;4993678;28;20364;-66
2023/05/06 08:12:47;;;;;;;1.48;0.60;;;23.20;87.80;;;;;;4993680;28;20092;-66
2023/05/06 08:15:12;;;;;;;1.83;0.60;;;23.00;87.60;;;;;;4994525;28;20031;-64
2023/05/06 08:17:38;;;;;;;1.40;0.45;;;22.80;88.80;;;;;;4994879;28;20033;-62
2023/05/06 08:20:05;;;;;;;3.95;0.55;;;22.40;89.20;;;;;;4994944;28;20399;-65
2023/05/06 08:22:30;;;;;;;2.67;0.93;;;22.20;90.70;;;;;;4994848;28;20110;-64
2023/05/06 08:24:56;;;;;;;1.30;0.57;;;22.10;90.40;;;;;;4994782;28;20094;-66
2023/05/06 08:27:22;;;;;;;1.85;0.60;;;21.80;90.40;;;;;;4995069;28;20494;-65
2023/05/06 08:29:48;;;;;;;3.38;0.73;;;21.50;91.70;;;;;;4993378;28;20062;-66
2023/05/06 08:32:14;;;;;;;0.73;0.70;;;22.00;91.10;;;;;;4999959;28;20034;-71
2023/05/06 08:34:39;;;;;;;2.58;0.75;;;22.20;90.40;;;;;;5014037;28;20163;-68
2023/05/06 08:37:05;;;;;;;1.02;0.73;;;21.90;90.10;;;;;;5014350;28;20485;-69
2023/05/06 08:39:31;;;;;;;1.23;0.70;;;22.00;90.60;;;;;;5014215;28;20406;-67
2023/05/06 08:42:00;;;;;;;0.80;0.63;;;21.90;90.50;;;;;;4996584;28;20053;-67
2023/05/06 08:44:26;;;;;;;3.05;0.82;;;21.90;90.30;;;;;;5014161;28;20030;-67
2023/05/06 08:46:52;;;;;;;1.13;0.60;;;22.10;90.60;;;;;;5014459;28;20129;-76
2023/05/06 08:49:18;;;;;;;0.65;0.35;;;22.30;90.20;;;;;;4996114;28;20029;-73
2023/05/06 08:51:44;;;;;;;0.75;0.75;;;22.60;89.40;;;;;;5014555;28;20021;-70
2023/05/06 08:54:11;;;;;;;1.25;0.70;;;22.80;87.50;;;;;;4996365;28;20386;-71
2023/05/06 08:56:45;;;;;;;2.77;0.80;;;22.40;88.60;;;;;;5013957;28;20042;-71
2023/05/06 08:59:12;;;;;;;2.72;1.13;;;22.10;90.00;;;;;;4996960;28;20026;-71
2023/05/06 09:01:38;;;;;;;1.27;0.77;;;22.30;90.20;;;;;;5012732;28;20472;-71
2023/05/06 09:04:08;;;;;;;2.45;1.00;;;22.60;88.90;;;;;;5013993;28;20026;-76
2023/05/06 09:06:34;;;;;;;0.65;0.60;;;23.20;88.10;;;;;;5014062;28;20113;-75
2023/05/06 09:09:00;;;;;;;0.75;0.75;;;24.10;86.30;;;;;;5014129;28;20086;-76
2023/05/06 09:11:29;;;;;;;3.72;0.80;;;24.80;81.40;;;;;;5013800;28;20034;-76
2023/05/06 09:14:11;;;;;;;1.45;0.70;;;24.70;79.40;;;;;;4996428;28;20385;-75
2023/05/06 09:16:38;;;;;;;2.75;0.73;;;25.00;78.30;;;;;;4995813;28;20026;-75
2023/05/06 09:19:04;;;;;;;0.98;0.70;;;25.50;76.80;;;;;;4995900;28;20026;-75
2023/05/06 09:21:40;;;;;;;1.08;0.80;;;25.60;73.90;;;;;;5013808;28;20034;-75
2023/05/06 09:24:07;;;;;;;2.28;0.80;;;24.50;74.30;;;;;;4996282;28;20026;-75
2023/05/06 09:26:35;;;;;;;2.17;0.70;;;24.20;74.50;;;;;;5016296;28;20025;-75
2023/05/06 09:29:02;;;;;;;2.88;0.75;;;24.00;76.20;;;;;;5017789;28;20033;-75
2023/05/06 09:31:28;;;;;;;1.25;0.60;;;23.60;76.90;;;;;;4999850;28;20034;-75
2023/05/06 09:33:55;;;;;;;1.60;0.80;;;23.40;77.50;;;;;;5017464;28;20026;-75
2023/05/06 09:36:24;;;;;;;3.00;0.90;;;22.90;77.90;;;;;;4999815;28;20037;-75
2023/05/06 09:38:52;;;;;;;2.40;0.90;;;22.50;79.40;;;;;;5000115;28;20470;-75
2023/05/06 09:41:19;;;;;;;1.67;1.05;;;22.50;80.30;;;;;;4999951;28;20390;-75
2023/05/06 09:43:47;;;;;;;1.63;0.60;;;22.40;80.40;;;;;;5017522;28;20026;-76
2023/05/06 09:46:14;;;;;;;2.47;0.85;;;22.50;80.60;;;;;;4999667;28;20136;-76
2023/05/06 09:48:40;;;;;;;0.80;0.80;;;22.70;79.20;;;;;;4999690;28;20092;-76
2023/05/06 09:51:07;;;;;;;1.52;0.90;;;22.80;80.00;;;;;;4999423;28;20077;-76
2023/05/06 09:53:36;;;;;;;0.90;0.90;;;22.50;80.40;;;;;;5017263;28;20085;-75
2023/05/06 09:56:04;;;;;;;4.38;1.05;;;22.50;81.30;;;;;;5017474;28;20076;-75
2023/05/06 09:58:30;;;;;;;1.03;0.80;;;22.60;81.40;;;;;;4999758;28;20034;-75
2023/05/06 10:00:57;;;;;;;1.13;0.80;;;22.70;80.80;;;;;;5016224;28;20084;-75
2023/05/06 10:03:23;;;;;;;0.70;0.70;;;23.00;80.30;;;;;;5017332;28;20037;-75
2023/05/06 10:05:50;;;;;;;0.77;0.77;;;23.30;80.70;;;;;;4999679;28;20371;-75
2023/05/06 10:08:17;;;;;;;1.75;0.80;;;23.60;77.90;;;;;;4999805;28;20026;-75
2023/05/06 10:10:45;;;;;;;1.35;0.80;;;23.40;78.20;;;;;;5016878;28;20425;-75
2023/05/06 10:13:12;;;;;;;1.00;0.93;;;23.40;79.60;;;;;;4999348;28;20401;-75
2023/05/06 10:15:38;;;;;;;0.70;0.65;;;23.60;77.30;;;;;;5016597;28;20437;-75
2023/05/06 10:18:06;;;;;;;1.73;1.05;;;23.30;75.70;;;;;;5017149;28;20029;-75
2023/05/06 10:20:34;;;;;;;2.80;1.00;;;23.50;77.00;;;;;;5016589;28;20080;-75
2023/05/06 10:23:28;;;;;;;0.45;0.40;;;24.00;77.80;;;;;;5017139;28;20374;-75
2023/05/06 10:26:04;;;;;;;2.13;0.90;;;24.60;76.10;;;;;;5016043;28;20085;-75
2023/05/06 10:28:30;;;;;;;1.70;0.80;;;24.80;73.60;;;;;;5016187;28;20065;-76
2023/05/06 10:30:57;;;;;;;2.70;0.70;;;25.30;73.60;;;;;;5000929;28;20038;-76
2023/05/06 10:33:25;;;;;;;0.90;0.50;;;25.80;72.00;;;;;;4998712;28;20042;-76
2023/05/06 10:36:10;;;;;;;1.17;0.80;;;26.10;68.40;;;;;;5016532;28;20026;-75
2023/05/06 10:38:45;;;;;;;1.23;0.70;;;26.10;66.50;;;;;;5015892;28;20379;-76
2023/05/06 10:41:12;;;;;;;1.13;0.50;;;25.40;66.30;;;;;;4995981;28;20481;-75
2023/05/06 10:43:55;;;;;;;3.08;0.68;;;24.80;68.30;;;;;;4998770;28;20137;-76
2023/05/06 10:46:22;;;;;;;0.98;0.60;;;24.50;68.70;;;;;;5015940;28;20132;-76
2023/05/06 10:49:07;;;;;;;3.40;0.60;;;24.80;69.80;;;;;;5016185;28;20030;-75
2023/05/06 10:51:36;;;;;;;0.50;0.40;;;25.40;67.00;;;;;;5016141;28;20073;-75
2023/05/06 10:54:09;;;;;;;0.32;0.32;;;25.50;65.00;;;;;;5015788;28;20105;-75
2023/05/06 10:56:35;;;;;;;0.50;0.40;;;25.10;63.20;;;;;;5016156;28;20028;-75
2023/05/06 10:59:09;;;;;;;1.35;0.30;;;25.60;64.30;;;;;;5016124;28;20027;-76
2023/05/06 11:01:36;;;;;;;1.95;0.52;;;25.40;64.30;;;;;;4998762;28;20052;-76
2023/05/06 11:04:14;;;;;;;0.40;0.40;;;25.40;66.30;;;;;;5015747;28;20026;-75
2023/05/06 11:06:41;;;;;;;0.50;0.50;;;25.20;63.20;;;;;;5016045;28;20084;-75
2023/05/06 11:09:16;;;;;;;0.95;0.60;;;25.20;64.60;;;;;;5015851;28;20034;-76
2023/05/06 11:12:03;;;;;;;0.45;0.38;;;25.20;65.00;;;;;;5016064;28;20065;-76
2023/05/06 11:14:28;;;;;;;0.75;0.63;;;25.10;66.30;;;;;;4998735;28;20026;-69
2023/05/06 11:16:56;;;;;;;1.13;0.55;;;24.90;65.60;;;;;;5015828;28;20084;-68
2023/05/06 11:19:38;;;;;;;1.65;0.60;;;24.70;66.60;;;;;;5015161;28;20030;-70
2023/05/06 11:22:05;;;;;;;0.60;0.50;;;24.70;67.00;;;;;;5015504;28;20030;-75
2023/05/06 11:24:41;;;;;;;1.08;0.77;;;24.60;65.20;;;;;;5015442;28;20036;-75
2023/05/06 11:27:08;;;;;;;1.05;0.63;;;24.50;66.80;;;;;;5015289;28;20525;-75
2023/05/06 11:29:34;;;;;;;1.05;0.90;;;24.60;66.90;;;;;;4997725;28;20030;-75
2023/05/06 11:32:00;;;;;;;3.00;0.70;;;24.50;68.10;;;;;;5015358;28;20113;-75
2023/05/06 11:34:28;;;;;;;0.47;0.47;;;24.60;65.30;;;;;;5015156;28;20419;-76
2023/05/06 11:37:06;;;;;;;0.90;0.90;;;24.40;65.20;;;;;;4997952;28;20398;-75
2023/05/06 11:39:34;;;;;;;3.45;1.15;;;24.90;65.90;;;;;;4997669;28;20022;-77
2023/05/06 11:42:03;;;;;;;1.00;0.90;;;26.20;65.80;;;;;;5015185;28;20110;-77
2023/05/06 11:44:31;;;;;;;2.83;0.57;;;28.00;61.90;;;;;;4997567;28;20022;-77
2023/05/06 11:46:58;;;;;;;0.85;0.70;;;28.40;57.00;;;;;;5015564;28;20541;-76
2023/05/06 11:49:25;;;;;;;0.73;0.73;;;28.40;57.00;;;;;;4997042;28;20079;-76
2023/05/06 11:51:52;;;;;;;1.00;0.70;;;28.80;56.10;;;;;;5015278;28;20025;-76
2023/05/06 11:54:21;;;;;;;0.80;0.80;;;27.80;56.60;;;;;;5015126;28;20026;-77
2023/05/06 11:56:52;;;;;;;0.88;0.88;;;27.20;58.50;;;;;;4997653;28;20168;-76
2023/05/06 11:59:42;;;;;;;0.98;0.52;;;27.50;56.20;;;;;;5014639;28;20393;-76
2023/05/06 12:02:11;;;;;;;1.30;0.70;;;28.30;55.60;;;;;;4997257;28;20022;-77
2023/05/06 12:04:40;;;;;;;1.13;0.60;;;29.00;54.40;;;;;;5014431;28;20381;-77
2023/05/06 12:07:07;;;;;;;2.25;0.68;;;29.60;52.50;;;;;;5014802;28;20076;-77
2023/05/06 12:09:34;;;;;;;2.60;0.50;;;29.50;51.00;;;;;;4996720;28;20040;-77
2023/05/06 12:12:01;;;;;;;1.85;0.60;;;29.70;51.10;;;;;;4997555;28;20096;-76
2023/05/06 12:14:27;;;;;;;6.40;0.60;;;29.80;50.70;;;;;;4996757;28;20030;-76
2023/05/06 12:16:53;;;;;;;0.40;0.40;;;28.10;52.20;;;;;;5014920;28;20114;-75
2023/05/06 12:19:20;;;;;;;0.35;0.35;;;26.80;55.20;;;;;;4997277;28;20362;-76
2023/05/06 12:21:46;;;;;;;1.05;0.40;;;26.40;56.10;;;;;;5014645;28;20101;-76
2023/05/06 12:24:11;;;;;;;0.85;0.63;;;27.00;56.20;;;;;;4996912;28;20121;-76
2023/05/06 12:26:42;;;;;;;2.47;0.65;;;27.00;56.30;;;;;;4997154;28;20022;-75
2023/05/06 12:29:09;;;;;;;0.63;0.63;;;27.30;56.40;;;;;;4996768;28;20030;-75
2023/05/06 12:31:36;;;;;;;0.80;0.80;;;28.20;54.90;;;;;;5014363;28;20030;-75
2023/05/06 12:34:02;;;;;;;1.00;0.52;;;27.80;55.60;;;;;;5014584;28;20026;-76
2023/05/06 12:36:28;;;;;;;1.15;0.75;;;27.90;55.70;;;;;;4996782;28;20360;-76
2023/05/06 12:38:58;;;;;;;0.55;0.55;;;28.70;55.50;;;;;;5014264;28;20454;-76
2023/05/06 12:41:43;;;;;;;0.50;0.50;;;29.00;53.70;;;;;;4996159;28;20034;-76
2023/05/06 12:44:30;;;;;;;1.10;0.60;;;29.00;53.80;;;;;;5014289;28;20093;-76
2023/05/06 12:46:55;;;;;;;1.48;0.80;;;29.50;52.30;;;;;;5014486;28;20103;-76